Fort Pierce, FL

9:41 PM EST on November 22, 2014 (GMT -0500)
Wynne Ranch | Change Station
CLOSE
Current Station
Personal Weather Station
Location: Fort Pierce/Okeechobee, FL
Elevation: 28 ft
Nearby Weather Stations

Elev 28 ft 27.45 °N, 80.67 °W | Updated 5 seconds ago

Overcast
Overcast
71.0 °F
Feels Like 71.0 °F
N
11.5
Wind Variable Wind from SE
Gusts 11.5 mph

Today
High -- | Low -- °F
--% Chance of Precip.
Yesterday
High -- | Low -- °F
Precip. -- in
6:48 AM 5:28 PM
New Moon, 0% visible
Pressure 30.13 in
Visibility 10.0 miles
Clouds Few 2900 ft
Overcast 3700 ft
Dew Point 71 °F
Humidity 99%
Rainfall 0.05 in
Snow Depth Not available.
UV 0 out of 12
Pollen 4.30 out of 12
Air Quality Not available.
Flu Activity Not available.
METAR KFPR 230153Z AUTO 11017KT 10SM FEW029 OVC037 24/19 A3013 RMK AO2 SLP202 T02390194

More Conditions Fewer Conditions

Pressure 30.13 in
Visibility 10.0 miles
Clouds Few 2900 ft
Overcast 3700 ft
Dew Point 71 °F
Humidity 99%
Rainfall 0.05 in
Snow Depth Not available.
UV 0 out of 12
Pollen 4.30 out of 12
Air Quality Not available.
Flu Activity Not available.
METAR KFPR 230153Z AUTO 11017KT 10SM FEW029 OVC037 24/19 A3013 RMK AO2 SLP202 T02390194

More Conditions Fewer Conditions

Nowcast | as of 9:28 PM EST on November 22, 2014

Warmer and more moist south to southwest windflow from the southeast Gulf of Mexico moves overtop of a relatively drier east to southeast wind off the Atlantic. Lowering cloud bases and periods of light rain or drizzle will be the main weather features overnight. Easterly winds of 25 mph with gusts over 30 mph and seas to 9 feet have prompted small craft advisories for all of east central Florida coastal waters from Flagler Beach to Jupiter Inlet out to 60 nautical miles. Additional details...including graphics are available online at: http://www.Srh.NOAA.Gov/mlb/blog.Php

×

10-Day Weather Forecast

Almanac

Astronomy

Nov. 22, 2014 Rise Set
Actual Time
Civil Twilight
Nautical Twilight
Astronomical Twilight
Moon
Length of Visible Light
Length of Day
Tomorrow will be .
, % of the Moon is Illuminated

Today's Extremes

State Highs State Lows

Community

WunderPhotos

Upload Photos

1,772,978 photos uploaded!

WunderBlogs® & News

Nearby

Air Quality

  Air Quality AQ Index Pollutant
Not available.

Snow Depth

Station Depth Elevation

Earthquake Activity

City Distance Mag. Time & Date
Minimum magnitude displayed is 2.5.

Coastal Water Temperatures

Place Temperature

Nearby Weather Stations